Time;durP1;ratioP1;P1;durP2;ratioP2;P2;SDS_P1;SDS_P2;PMS_P1;PMS_P2;Temp;Humidity;BMP_temperature;BMP_pressure;BME280_temperature;BME280_humidity;BME280_pressure;Samples;Min_cycle;Max_cycle;Signal;HPM_P1;HPM_P2
2023/08/24 00:01:04;;;;;;;5.15;2.20;;;17.70;99.90;;;;;;5057689;28;20084;-70
2023/08/24 00:03:30;;;;;;;5.70;2.05;;;17.70;99.90;;;;;;5057554;28;20040;-70
2023/08/24 00:05:56;;;;;;;4.78;2.10;;;17.70;99.90;;;;;;5057550;28;20392;-71
2023/08/24 00:08:22;;;;;;;5.20;2.15;;;17.70;99.90;;;;;;5057315;28;20044;-70
2023/08/24 00:10:47;;;;;;;5.57;1.90;;;17.90;99.90;;;;;;5041073;28;20549;-72
2023/08/24 00:13:17;;;;;;;6.28;1.92;;;17.70;99.90;;;;;;5057082;28;20052;-71
2023/08/24 00:15:56;;;;;;;5.13;2.00;;;17.70;99.90;;;;;;5055121;28;20097;-71
2023/08/24 00:18:22;;;;;;;4.78;1.80;;;17.70;99.90;;;;;;5057248;28;20400;-71
2023/08/24 00:20:51;;;;;;;5.72;2.08;;;17.70;99.90;;;;;;5057257;28;20102;-69
2023/08/24 00:23:18;;;;;;;4.40;1.70;;;17.60;99.90;;;;;;5040534;28;20048;-70
2023/08/24 00:25:44;;;;;;;5.38;1.70;;;17.50;99.90;;;;;;5057300;28;20082;-72
2023/08/24 00:28:10;;;;;;;6.40;2.50;;;17.50;99.90;;;;;;5057131;28;20040;-70
2023/08/24 00:30:37;;;;;;;3.95;1.60;;;17.50;99.90;;;;;;5057105;28;20037;-71
2023/08/24 00:33:04;;;;;;;3.53;1.40;;;17.50;99.90;;;;;;5057100;28;20501;-71
2023/08/24 00:35:30;;;;;;;5.22;1.77;;;17.40;99.90;;;;;;5057090;28;20381;-72
2023/08/24 00:37:56;;;;;;;3.63;1.50;;;17.40;99.90;;;;;;5040125;28;20044;-70
2023/08/24 00:40:22;;;;;;;3.60;1.50;;;17.40;99.90;;;;;;5074774;28;20435;-71
2023/08/24 00:42:48;;;;;;;3.42;1.55;;;17.40;99.90;;;;;;5056548;28;20446;-71
2023/08/24 00:45:14;;;;;;;3.75;1.52;;;17.30;99.90;;;;;;5056846;28;20036;-70
2023/08/24 00:47:49;;;;;;;5.60;1.70;;;17.30;99.90;;;;;;5056878;28;20128;-65
2023/08/24 00:50:28;;;;;;;3.67;1.48;;;17.30;99.90;;;;;;5056521;28;20040;-65
2023/08/24 00:52:56;;;;;;;4.00;1.60;;;17.30;99.90;;;;;;5041438;28;20036;-64
2023/08/24 00:55:22;;;;;;;4.13;1.48;;;17.30;99.90;;;;;;5074374;28;20074;-63
2023/08/24 00:57:49;;;;;;;4.38;1.60;;;17.20;99.90;;;;;;5056352;28;20044;-65
2023/08/24 01:00:16;;;;;;;3.58;1.50;;;17.20;99.90;;;;;;5069491;28;20504;-66
2023/08/24 01:02:51;;;;;;;5.47;2.08;;;17.20;99.90;;;;;;5054410;28;20048;-64
2023/08/24 01:05:17;;;;;;;3.70;1.50;;;17.20;99.90;;;;;;5054102;28;20041;-63
2023/08/24 01:07:43;;;;;;;5.72;1.65;;;17.10;99.90;;;;;;5054186;28;20045;-63
2023/08/24 01:10:10;;;;;;;4.55;1.70;;;17.10;99.90;;;;;;5036398;28;20482;-64
2023/08/24 01:13:07;;;;;;;5.57;3.15;;;17.20;99.90;;;;;;5054359;28;20037;-63
2023/08/24 01:15:58;;;;;;;3.45;1.50;;;17.10;99.90;;;;;;5052655;28;20099;-64
2023/08/24 01:18:26;;;;;;;7.40;3.80;;;17.10;99.90;;;;;;5052864;28;20136;-64
2023/08/24 01:20:56;;;;;;;;;;;17.00;99.90;;;;;;5069483;28;20037;-63
2023/08/24 01:23:40;;;;;;;4.20;1.90;;;17.00;99.90;;;;;;5035410;28;19921;-63
2023/08/24 01:26:17;;;;;;;7.00;3.55;;;17.00;99.90;;;;;;5052350;28;20100;-63
2023/08/24 01:28:47;;;;;;;7.63;4.85;;;16.90;99.90;;;;;;5052638;28;20056;-63
2023/08/24 01:31:16;;;;;;;7.43;4.70;;;16.90;99.90;;;;;;5052424;28;20110;-64
2023/08/24 01:33:44;;;;;;;6.60;3.17;;;16.80;99.90;;;;;;5053880;28;20037;-64
2023/08/24 01:36:14;;;;;;;6.13;4.05;;;16.70;99.90;;;;;;5052714;28;20505;-64
2023/08/24 01:38:41;;;;;;;7.80;4.00;;;16.60;99.90;;;;;;5052406;28;20505;-64
2023/08/24 01:41:30;;;;;;;5.57;3.00;;;16.60;99.90;;;;;;5036060;28;20037;-64
2023/08/24 01:43:58;;;;;;;7.65;5.90;;;16.60;99.90;;;;;;5053607;28;20517;-64
2023/08/24 01:46:26;;;;;;;10.68;7.00;;;16.50;99.90;;;;;;5053568;28;20061;-63
2023/08/24 01:48:56;;;;;;;8.23;5.22;;;16.40;99.90;;;;;;5052466;28;20041;-63
2023/08/24 01:51:23;;;;;;;9.45;6.65;;;16.30;99.90;;;;;;5019896;28;20045;-63
2023/08/24 01:53:52;;;;;;;9.85;7.22;;;16.30;99.90;;;;;;5052202;28;20052;-64
2023/08/24 01:56:18;;;;;;;8.63;5.30;;;16.30;99.90;;;;;;5035908;28;20123;-63
2023/08/24 01:58:44;;;;;;;9.63;7.35;;;16.30;99.90;;;;;;5035591;28;20147;-63
2023/08/24 02:01:10;;;;;;;7.15;4.57;;;16.30;99.90;;;;;;5035103;28;20394;-64
2023/08/24 02:03:38;;;;;;;10.43;8.88;;;16.30;99.90;;;;;;5035508;28;20037;-63
2023/08/24 02:06:07;;;;;;;7.93;4.50;;;16.30;99.90;;;;;;5052074;28;20081;-63
2023/08/24 02:08:37;;;;;;;7.93;6.40;;;16.30;99.90;;;;;;5052106;28;20063;-63
2023/08/24 02:11:04;;;;;;;6.97;4.85;;;16.30;99.90;;;;;;5051968;28;20388;-64
2023/08/24 02:13:30;;;;;;;7.07;4.93;;;16.30;99.90;;;;;;5053360;28;20509;-64
2023/08/24 02:16:08;;;;;;;10.10;7.50;;;16.40;99.90;;;;;;5035073;28;20111;-62
2023/08/24 02:18:34;;;;;;;12.27;7.40;;;16.30;99.90;;;;;;5051714;28;20037;-63
2023/08/24 02:21:00;;;;;;;9.93;5.85;;;16.40;99.90;;;;;;5035080;28;20504;-63
2023/08/24 02:23:26;;;;;;;7.85;5.82;;;16.30;99.90;;;;;;5052906;28;20067;-63
2023/08/24 02:25:51;;;;;;;7.68;4.20;;;16.40;99.90;;;;;;5051814;28;20041;-64
2023/08/24 02:28:17;;;;;;;10.85;7.63;;;16.40;99.90;;;;;;5051735;28;20071;-63
2023/08/24 02:30:43;;;;;;;9.82;6.95;;;16.40;99.90;;;;;;5068332;28;20040;-64
2023/08/24 02:33:09;;;;;;;9.40;7.20;;;16.50;99.90;;;;;;5052010;28;20045;-63
2023/08/24 02:35:35;;;;;;;10.15;7.60;;;16.50;99.90;;;;;;5018700;28;20187;-63
2023/08/24 02:38:00;;;;;;;9.95;6.72;;;16.50;99.90;;;;;;5054380;28;20437;-64
2023/08/24 02:40:26;;;;;;;10.35;7.93;;;16.60;99.90;;;;;;5055627;28;20070;-62
2023/08/24 02:42:52;;;;;;;8.38;6.30;;;16.60;99.90;;;;;;5055814;28;20067;-63
2023/08/24 02:45:18;;;;;;;8.48;6.30;;;16.60;99.90;;;;;;5055587;28;20112;-63
2023/08/24 02:47:44;;;;;;;7.70;5.28;;;16.60;99.90;;;;;;5055512;28;20064;-63
2023/08/24 02:50:19;;;;;;;9.27;5.82;;;16.60;99.90;;;;;;5055436;28;20048;-67
2023/08/24 02:52:51;;;;;;;10.18;6.97;;;16.50;99.90;;;;;;5055427;28;20037;-65
2023/08/24 02:55:17;;;;;;;11.90;9.27;;;16.60;99.90;;;;;;5055812;28;20481;-63
2023/08/24 02:57:45;;;;;;;12.38;9.65;;;16.60;99.90;;;;;;5056899;28;20047;-64
2023/08/24 03:00:13;;;;;;;12.55;9.88;;;16.60;99.90;;;;;;5055178;28;20475;-64
2023/08/24 03:02:39;;;;;;;9.65;7.13;;;16.60;99.90;;;;;;5056776;28;20045;-64
2023/08/24 03:05:06;;;;;;;7.93;5.10;;;16.50;99.90;;;;;;5055250;28;20071;-63
2023/08/24 03:07:32;;;;;;;14.82;10.73;;;16.50;99.90;;;;;;5055276;28;20046;-70
2023/08/24 03:09:58;;;;;;;7.50;5.18;;;16.50;99.90;;;;;;5071870;28;20551;-72
2023/08/24 03:12:24;;;;;;;11.77;9.02;;;16.50;99.90;;;;;;5038532;28;20051;-72
2023/08/24 03:14:53;;;;;;;7.78;4.72;;;16.50;99.90;;;;;;5055115;28;20084;-70
2023/08/24 03:17:19;;;;;;;9.75;6.78;;;16.50;99.90;;;;;;5055242;28;20102;-71
2023/08/24 03:19:47;;;;;;;10.38;7.18;;;16.60;99.90;;;;;;5056096;28;20053;-71
2023/08/24 03:22:13;;;;;;;13.00;9.13;;;16.60;99.90;;;;;;5039363;28;20098;-70
2023/08/24 03:24:39;;;;;;;6.95;5.30;;;16.60;99.90;;;;;;5054806;28;20045;-72
2023/08/24 03:27:05;;;;;;;9.10;5.03;;;16.60;99.90;;;;;;5022028;28;20037;-70
2023/08/24 03:29:31;;;;;;;10.27;7.07;;;16.60;99.90;;;;;;5055081;28;20052;-72
2023/08/24 03:32:06;;;;;;;10.73;8.25;;;16.60;99.90;;;;;;5054919;28;20036;-71
2023/08/24 03:34:31;;;;;;;9.93;7.38;;;16.70;99.90;;;;;;5024550;28;20374;-69
2023/08/24 03:36:57;;;;;;;10.70;7.43;;;16.60;99.90;;;;;;5038312;28;20056;-70
2023/08/24 03:39:23;;;;;;;9.73;8.43;;;16.60;99.90;;;;;;5056113;28;20047;-70
2023/08/24 03:41:49;;;;;;;13.25;9.43;;;16.50;99.90;;;;;;5038130;28;20049;-71
2023/08/24 03:44:28;;;;;;;;;;;;;;;;;;;;;
2023/08/24 03:47:30;;;;;;;8.45;4.65;;;16.50;99.90;;;;;;5054754;28;20048;-71
2023/08/24 03:49:56;;;;;;;;;;;16.60;99.90;;;;;;5051237;28;20103;-70
2023/08/24 03:52:22;;;;;;;6.47;4.20;;;16.50;99.90;;;;;;5054251;28;20453;-68
2023/08/24 03:54:50;;;;;;;8.82;4.85;;;16.60;99.90;;;;;;5055873;28;20037;-71
2023/08/24 03:57:32;;;;;;;12.07;9.80;;;16.60;99.90;;;;;;5021524;28;20041;-70
2023/08/24 03:59:58;;;;;;;14.23;11.70;;;16.60;99.90;;;;;;5056849;28;20045;-69
2023/08/24 04:02:24;;;;;;;11.10;9.07;;;16.50;99.90;;;;;;5056431;28;20546;-71
2023/08/24 04:04:53;;;;;;;7.32;4.10;;;16.40;99.90;;;;;;5056713;28;20055;-71
2023/08/24 04:07:19;;;;;;;6.75;4.03;;;16.40;99.90;;;;;;5073019;28;20033;-70
2023/08/24 04:09:45;;;;;;;11.57;9.15;;;16.40;99.90;;;;;;5056442;28;20066;-71
2023/08/24 04:12:11;;;;;;;6.25;4.30;;;16.50;99.90;;;;;;5074473;28;20048;-70
2023/08/24 04:14:37;;;;;;;6.22;3.63;;;16.50;99.90;;;;;;5056046;28;20041;-71
2023/08/24 04:17:03;;;;;;;6.32;3.70;;;16.50;99.90;;;;;;5056330;28;20423;-64
2023/08/24 04:19:29;;;;;;;6.45;3.83;;;16.50;99.90;;;;;;5055948;28;20036;-63
2023/08/24 04:21:54;;;;;;;6.03;3.90;;;16.50;99.90;;;;;;5055961;28;20579;-63
2023/08/24 04:24:25;;;;;;;6.60;4.07;;;16.50;99.90;;;;;;5056004;28;20079;-62
2023/08/24 04:26:54;;;;;;;5.82;3.60;;;16.50;99.90;;;;;;5040128;28;20093;-61
2023/08/24 04:29:20;;;;;;;12.35;9.73;;;16.50;99.90;;;;;;5074108;28;20036;-63
2023/08/24 04:31:51;;;;;;;12.95;11.18;;;16.40;99.90;;;;;;5056341;28;20074;-64
2023/08/24 04:34:17;;;;;;;;;;;16.30;99.90;;;;;;5024049;28;20040;-62
2023/08/24 04:36:43;;;;;;;11.05;8.00;;;16.20;99.90;;;;;;5055995;28;19920;-61
2023/08/24 04:39:11;;;;;;;8.38;6.10;;;16.10;99.90;;;;;;5039354;28;20033;-63
2023/08/24 04:41:37;;;;;;;13.68;10.73;;;16.10;99.90;;;;;;5073541;28;20043;-62
2023/08/24 04:44:03;;;;;;;12.60;10.23;;;16.00;99.90;;;;;;5039121;28;20033;-62
2023/08/24 04:46:29;;;;;;;13.73;11.18;;;15.90;99.90;;;;;;5055693;28;20149;-63
2023/08/24 04:48:55;;;;;;;15.57;11.68;;;15.90;99.90;;;;;;5039220;28;20041;-63
2023/08/24 04:51:21;;;;;;;14.57;12.48;;;15.70;99.90;;;;;;5039057;28;20044;-63
2023/08/24 04:53:47;;;;;;;7.65;5.28;;;15.70;99.90;;;;;;5055696;28;20068;-64
2023/08/24 04:56:12;;;;;;;7.03;5.38;;;15.70;99.90;;;;;;5073534;28;20036;-63
2023/08/24 04:58:38;;;;;;;7.63;5.20;;;15.70;99.90;;;;;;5073219;28;20066;-62
2023/08/24 05:01:04;;;;;;;10.55;8.63;;;15.70;99.90;;;;;;5033406;28;1119682;-63
2023/08/24 05:03:30;;;;;;;11.32;8.73;;;15.70;99.90;;;;;;5056535;28;20048;-63
2023/08/24 05:05:55;;;;;;;12.32;9.32;;;15.70;99.90;;;;;;5056619;28;20040;-63
2023/08/24 05:08:21;;;;;;;11.10;8.50;;;15.70;99.90;;;;;;5056168;28;20040;-62
2023/08/24 05:10:47;;;;;;;9.20;7.15;;;15.70;99.90;;;;;;5056526;28;20484;-62
2023/08/24 05:13:13;;;;;;;11.63;10.30;;;15.70;99.90;;;;;;5039524;28;20045;-63
2023/08/24 05:15:39;;;;;;;15.52;12.95;;;15.70;99.90;;;;;;5039809;28;20373;-64
2023/08/24 05:18:05;;;;;;;11.55;9.30;;;15.70;99.90;;;;;;5055941;28;20106;-63
2023/08/24 05:20:31;;;;;;;13.68;11.68;;;15.60;99.90;;;;;;5039320;28;20126;-62
2023/08/24 05:22:57;;;;;;;17.75;13.10;;;15.60;99.90;;;;;;5074015;28;20041;-63
2023/08/24 05:25:26;;;;;;;16.00;12.32;;;15.60;99.90;;;;;;5056164;28;20408;-62
2023/08/24 05:27:52;;;;;;;13.32;9.98;;;15.60;99.90;;;;;;5074047;28;20032;-63
2023/08/24 05:30:18;;;;;;;17.83;12.38;;;15.60;99.90;;;;;;5056071;28;20124;-63
2023/08/24 05:32:44;;;;;;;16.52;12.27;;;15.60;99.90;;;;;;5055901;28;20063;-63
2023/08/24 05:35:10;;;;;;;13.57;9.93;;;15.60;99.90;;;;;;5074039;28;20041;-63
2023/08/24 05:37:36;;;;;;;14.18;10.18;;;15.60;99.90;;;;;;5055833;28;20095;-63
2023/08/24 05:40:03;;;;;;;13.07;10.00;;;15.60;99.90;;;;;;5055588;28;20044;-62
2023/08/24 05:42:29;;;;;;;18.60;12.98;;;15.70;99.90;;;;;;5072339;28;20089;-63
2023/08/24 05:44:55;;;;;;;15.90;11.38;;;15.80;99.90;;;;;;5022645;28;20068;-63
2023/08/24 05:47:20;;;;;;;13.82;10.25;;;15.80;99.90;;;;;;5055629;28;20066;-63
2023/08/24 05:49:46;;;;;;;15.55;10.52;;;15.90;99.90;;;;;;5055315;28;20049;-64
2023/08/24 05:52:12;;;;;;;13.20;9.60;;;16.10;99.90;;;;;;5055591;28;20047;-63
2023/08/24 05:54:38;;;;;;;14.20;10.23;;;16.20;99.90;;;;;;5055579;28;20064;-63
2023/08/24 05:57:05;;;;;;;15.43;10.30;;;16.30;99.90;;;;;;5055301;28;20113;-63
2023/08/24 05:59:34;;;;;;;12.27;9.90;;;16.40;99.90;;;;;;5055213;28;20071;-64
2023/08/24 06:02:00;;;;;;;11.95;8.93;;;16.40;99.90;;;;;;5038598;28;20497;-63
2023/08/24 06:04:26;;;;;;;11.23;8.48;;;16.40;99.90;;;;;;5038940;28;20047;-62
2023/08/24 06:06:52;;;;;;;14.57;11.43;;;16.70;99.90;;;;;;5055128;28;20094;-63
2023/08/24 06:09:23;;;;;;;14.98;9.60;;;17.10;99.90;;;;;;5038995;28;20495;-63
2023/08/24 06:11:49;;;;;;;11.43;6.88;;;17.60;99.90;;;;;;5055023;28;20127;-63
2023/08/24 06:14:15;;;;;;;11.00;7.43;;;17.80;99.90;;;;;;5034545;28;20092;-64
2023/08/24 06:16:41;;;;;;;12.02;6.88;;;18.40;99.90;;;;;;5002428;28;20052;-64
2023/08/24 06:19:06;;;;;;;10.50;6.47;;;19.00;99.90;;;;;;5035252;28;20041;-63
2023/08/24 06:21:38;;;;;;;10.27;6.00;;;19.50;99.90;;;;;;5035165;28;20037;-63
2023/08/24 06:24:04;;;;;;;10.25;6.50;;;19.40;99.90;;;;;;5019891;28;20112;-64
2023/08/24 06:26:30;;;;;;;9.88;5.43;;;19.30;99.90;;;;;;5019335;28;20137;-63
2023/08/24 06:29:04;;;;;;;8.20;5.53;;;19.60;99.90;;;;;;5020647;28;20087;-64
2023/08/24 06:31:32;;;;;;;10.38;7.00;;;19.90;99.90;;;;;;5003744;28;20559;-63
2023/08/24 06:33:58;;;;;;;8.73;5.65;;;20.40;99.90;;;;;;5018850;28;20045;-64
2023/08/24 06:36:28;;;;;;;10.52;6.53;;;20.40;99.90;;;;;;5035322;28;20124;-70
2023/08/24 06:38:54;;;;;;;10.10;6.18;;;20.30;99.90;;;;;;5034931;28;20064;-63
2023/08/24 06:41:20;;;;;;;10.00;6.38;;;20.40;99.90;;;;;;5035143;28;20045;-62
2023/08/24 06:43:46;;;;;;;9.85;6.63;;;20.50;99.90;;;;;;5052942;28;20469;-64
2023/08/24 06:46:14;;;;;;;11.77;7.65;;;20.60;99.90;;;;;;5052776;28;20037;-63
2023/08/24 06:48:43;;;;;;;13.45;7.57;;;20.60;99.90;;;;;;5019195;28;20124;-65
2023/08/24 06:51:13;;;;;;;14.68;10.00;;;20.60;99.90;;;;;;5018782;28;20099;-63
2023/08/24 06:53:42;;;;;;;11.68;8.55;;;20.30;99.90;;;;;;5052706;28;20099;-63
2023/08/24 06:56:08;;;;;;;13.93;8.88;;;20.40;99.90;;;;;;5018877;28;20037;-64
2023/08/24 06:58:35;;;;;;;11.75;8.32;;;20.60;99.90;;;;;;5035022;28;20486;-63
2023/08/24 07:01:05;;;;;;;13.05;8.95;;;21.10;99.90;;;;;;5034570;28;20060;-64
2023/08/24 07:03:34;;;;;;;15.25;10.20;;;22.20;99.90;;;;;;5034919;28;20037;-64
2023/08/24 07:06:00;;;;;;;12.35;9.35;;;22.60;99.90;;;;;;5018696;28;20063;-64
2023/08/24 07:08:31;;;;;;;13.23;8.40;;;22.50;99.90;;;;;;5034711;28;20040;-65
2023/08/24 07:11:09;;;;;;;15.00;8.68;;;22.90;99.90;;;;;;5019719;28;20043;-64
2023/08/24 07:13:35;;;;;;;14.55;8.65;;;23.80;99.90;;;;;;5051370;28;20125;-64
2023/08/24 07:16:02;;;;;;;12.02;8.80;;;24.20;99.90;;;;;;5034994;28;20099;-63
2023/08/24 07:18:28;;;;;;;14.07;8.57;;;24.50;99.90;;;;;;5034649;28;20077;-65
2023/08/24 07:20:57;;;;;;;16.38;10.65;;;25.00;99.90;;;;;;5052392;28;20045;-65
2023/08/24 07:23:22;;;;;;;12.02;8.60;;;24.70;99.90;;;;;;5036108;28;20075;-64
2023/08/24 07:25:57;;;;;;;13.85;9.60;;;24.60;99.90;;;;;;5038244;28;20072;-64
2023/08/24 07:28:23;;;;;;;15.02;9.77;;;24.60;99.90;;;;;;5038260;28;20044;-65
2023/08/24 07:30:49;;;;;;;12.05;8.65;;;24.40;99.90;;;;;;5005710;28;20037;-63
2023/08/24 07:33:15;;;;;;;12.73;9.10;;;24.20;99.90;;;;;;5056013;28;20047;-64
2023/08/24 07:35:41;;;;;;;11.07;8.88;;;24.50;99.90;;;;;;5038183;28;20041;-64
2023/08/24 07:38:10;;;;;;;12.63;8.90;;;24.90;99.90;;;;;;5021810;28;20124;-65
2023/08/24 07:40:36;;;;;;;14.38;9.63;;;24.90;99.90;;;;;;5037963;28;20131;-65
2023/08/24 07:43:01;;;;;;;15.65;9.45;;;24.20;99.90;;;;;;5038061;28;20124;-65
2023/08/24 07:45:27;;;;;;;14.80;10.40;;;24.30;99.90;;;;;;5038532;28;20029;-65
2023/08/24 07:47:54;;;;;;;13.57;8.98;;;23.80;99.90;;;;;;5056038;28;20112;-64
2023/08/24 07:50:19;;;;;;;13.50;9.02;;;23.90;99.90;;;;;;5038167;28;20048;-66
2023/08/24 07:52:45;;;;;;;15.30;8.23;;;24.00;99.90;;;;;;5037731;28;20037;-66
2023/08/24 07:55:11;;;;;;;12.52;9.13;;;24.40;99.90;;;;;;5054293;28;20045;-64
2023/08/24 07:57:37;;;;;;;12.68;8.35;;;24.30;99.90;;;;;;5037666;28;20477;-64
2023/08/24 08:00:05;;;;;;;12.32;8.70;;;24.50;99.90;;;;;;5035584;28;20061;-64
2023/08/24 08:02:34;;;;;;;14.25;9.63;;;24.20;99.90;;;;;;5037584;28;20056;-64
2023/08/24 08:05:00;;;;;;;11.85;8.70;;;24.70;99.90;;;;;;5021000;28;20045;-65
2023/08/24 08:07:32;;;;;;;13.45;8.98;;;24.20;99.90;;;;;;5037452;28;20040;-64
2023/08/24 08:09:57;;;;;;;12.57;8.50;;;24.70;99.90;;;;;;5037480;28;20045;-65
2023/08/24 08:12:23;;;;;;;12.90;9.82;;;25.00;99.90;;;;;;5037369;28;20378;-63
2023/08/24 08:14:49;;;;;;;12.32;9.35;;;24.90;99.90;;;;;;5020839;28;20128;-64
2023/08/24 08:17:15;;;;;;;11.40;8.75;;;24.80;99.90;;;;;;5037414;28;20055;-64
2023/08/24 08:19:41;;;;;;;12.02;9.50;;;24.80;99.90;;;;;;5037167;28;20041;-64
2023/08/24 08:22:07;;;;;;;12.93;8.45;;;24.40;99.90;;;;;;5004526;28;20049;-65
2023/08/24 08:24:33;;;;;;;13.70;10.13;;;24.60;99.90;;;;;;5037163;28;20037;-63
2023/08/24 08:27:14;;;;;;;13.38;10.43;;;24.60;99.90;;;;;;5020448;28;20040;-64
2023/08/24 08:29:40;;;;;;;13.43;10.07;;;24.60;99.90;;;;;;5021733;28;20106;-64
2023/08/24 08:32:07;;;;;;;12.70;10.18;;;24.60;99.90;;;;;;5037409;28;20401;-65
2023/08/24 08:34:33;;;;;;;12.38;9.25;;;24.60;99.90;;;;;;5036001;28;20558;-65
2023/08/24 08:37:02;;;;;;;12.02;9.63;;;24.50;99.90;;;;;;5036903;28;20077;-65
2023/08/24 08:39:33;;;;;;;16.15;10.43;;;24.70;99.90;;;;;;5021255;28;20037;-64
2023/08/24 08:41:59;;;;;;;11.73;9.93;;;24.80;99.90;;;;;;5036814;28;20040;-64
2023/08/24 08:44:33;;;;;;;12.93;10.23;;;25.00;99.90;;;;;;5036779;28;20040;-63
2023/08/24 08:47:00;;;;;;;15.35;10.05;;;25.20;99.90;;;;;;5036741;28;20131;-65
2023/08/24 08:49:26;;;;;;;16.27;10.18;;;25.30;99.90;;;;;;5020515;28;20593;-64
2023/08/24 08:51:55;;;;;;;13.00;9.20;;;25.40;99.90;;;;;;5036913;28;20051;-63
2023/08/24 08:54:21;;;;;;;13.68;10.02;;;25.40;99.90;;;;;;5036967;28;20037;-63
2023/08/24 08:56:50;;;;;;;14.75;9.45;;;25.40;99.90;;;;;;5020989;28;20489;-65
2023/08/24 08:59:17;;;;;;;12.23;9.57;;;25.50;99.90;;;;;;5037920;28;20048;-64
2023/08/24 09:01:45;;;;;;;12.32;8.90;;;25.70;99.90;;;;;;5036206;28;20055;-64
2023/08/24 09:04:11;;;;;;;11.30;9.13;;;25.70;99.90;;;;;;5036772;28;20106;-63
2023/08/24 09:06:52;;;;;;;15.30;10.02;;;25.60;99.90;;;;;;5036552;28;20049;-65
2023/08/24 09:09:22;;;;;;;12.68;8.82;;;25.80;99.90;;;;;;5005058;28;20037;-63
2023/08/24 09:11:49;;;;;;;11.77;8.10;;;25.90;99.90;;;;;;5036313;28;20041;-63
2023/08/24 09:14:15;;;;;;;11.00;8.93;;;26.00;99.90;;;;;;5036318;28;20049;-65
2023/08/24 09:16:44;;;;;;;12.73;9.35;;;26.00;99.90;;;;;;5036137;28;20489;-63
2023/08/24 09:19:13;;;;;;;11.38;8.93;;;25.80;99.90;;;;;;5036515;28;20041;-65
2023/08/24 09:21:41;;;;;;;12.65;9.00;;;25.70;99.90;;;;;;5036275;28;20127;-65
2023/08/24 09:24:11;;;;;;;12.00;9.82;;;25.60;99.90;;;;;;5036379;28;20045;-64
2023/08/24 09:26:42;;;;;;;12.48;9.32;;;25.20;99.90;;;;;;5054029;28;20029;-64
2023/08/24 09:29:12;;;;;;;;;;;24.90;99.90;;;;;;5054210;28;20045;-63
2023/08/24 09:31:39;;;;;;;11.90;8.77;;;25.00;99.90;;;;;;5036159;28;20369;-65
2023/08/24 09:34:11;;;;;;;13.00;9.43;;;25.10;99.90;;;;;;5053946;28;20119;-65
2023/08/24 09:36:39;;;;;;;11.77;8.43;;;25.10;99.90;;;;;;5035748;28;20102;-65
2023/08/24 09:39:06;;;;;;;13.93;9.32;;;25.10;99.90;;;;;;5035116;28;20044;-65
2023/08/24 09:41:54;;;;;;;12.10;9.40;;;25.30;99.90;;;;;;5035999;28;20041;-64
2023/08/24 09:44:20;;;;;;;12.85;8.10;;;25.40;99.90;;;;;;5035821;28;20429;-64
2023/08/24 09:46:46;;;;;;;12.57;8.25;;;25.50;99.90;;;;;;5035589;28;20075;-64
2023/08/24 09:49:19;;;;;;;11.23;8.32;;;25.60;99.90;;;;;;5035876;28;20053;-65
2023/08/24 09:51:45;;;;;;;11.65;7.75;;;25.60;99.90;;;;;;5003669;28;20053;-65
2023/08/24 09:54:24;;;;;;;11.05;7.63;;;25.60;99.90;;;;;;5035710;28;20515;-67
2023/08/24 09:56:50;;;;;;;11.60;7.90;;;25.60;99.90;;;;;;5053622;28;20501;-64
2023/08/24 09:59:24;;;;;;;10.40;7.22;;;25.60;99.90;;;;;;5035461;28;20049;-64
2023/08/24 10:02:00;;;;;;;10.85;6.45;;;25.60;99.90;;;;;;5035451;28;20100;-64
2023/08/24 10:04:29;;;;;;;10.55;6.75;;;25.50;99.90;;;;;;5053331;28;20040;-65
2023/08/24 10:07:22;;;;;;;11.00;6.57;;;25.50;99.90;;;;;;5053828;28;20068;-63
2023/08/24 10:09:58;;;;;;;13.02;7.57;;;25.40;99.90;;;;;;5032143;28;20057;-63
2023/08/24 10:12:35;;;;;;;10.38;6.95;;;25.30;99.90;;;;;;5035513;28;20048;-64
2023/08/24 10:15:07;;;;;;;12.38;8.10;;;25.30;99.90;;;;;;5035345;28;20102;-65
2023/08/24 10:17:36;;;;;;;13.50;7.78;;;25.10;99.90;;;;;;5053080;28;20040;-65
2023/08/24 10:20:08;;;;;;;10.15;7.57;;;24.90;99.90;;;;;;5035013;28;20041;-65
2023/08/24 10:22:36;;;;;;;9.93;6.90;;;24.90;99.90;;;;;;5019822;28;20037;-65
2023/08/24 10:25:06;;;;;;;11.60;7.22;;;25.00;99.90;;;;;;5051771;28;20041;-64
2023/08/24 10:27:43;;;;;;;11.23;7.30;;;25.00;99.90;;;;;;5051876;28;20120;-65
2023/08/24 10:30:14;;;;;;;10.35;6.82;;;25.00;99.90;;;;;;5019539;28;20041;-65
2023/08/24 10:32:48;;;;;;;9.57;6.55;;;25.00;99.90;;;;;;5034978;28;20052;-64
2023/08/24 10:35:15;;;;;;;10.98;6.78;;;25.00;99.90;;;;;;5019678;28;20044;-64
2023/08/24 10:37:46;;;;;;;10.65;7.45;;;24.90;99.90;;;;;;5035304;28;20125;-64
2023/08/24 10:40:31;;;;;;;11.47;6.70;;;25.00;99.90;;;;;;5034252;28;20075;-65
2023/08/24 10:43:04;;;;;;;13.40;7.30;;;25.00;99.90;;;;;;5035051;28;20052;-64
2023/08/24 10:45:56;;;;;;;10.35;6.82;;;25.00;99.90;;;;;;5034992;28;20178;-65
2023/08/24 10:48:28;;;;;;;9.98;7.35;;;25.00;99.90;;;;;;5034834;28;20072;-64
2023/08/24 10:51:12;;;;;;;;;;;25.00;99.90;;;;;;5002607;28;20041;-65
2023/08/24 10:53:39;;;;;;;12.23;8.25;;;25.00;99.90;;;;;;5052678;28;19917;-65
2023/08/24 10:56:12;;;;;;;10.55;7.47;;;24.90;99.90;;;;;;5002545;28;20091;-65
2023/08/24 10:58:38;;;;;;;9.93;8.20;;;24.90;99.90;;;;;;5020576;28;20053;-66
2023/08/24 11:01:04;;;;;;;11.23;7.95;;;24.90;99.90;;;;;;5035187;28;20399;-65
2023/08/24 11:03:34;;;;;;;10.45;7.90;;;24.90;99.90;;;;;;5019142;28;20053;-64
2023/08/24 11:06:00;;;;;;;11.45;8.10;;;25.00;99.90;;;;;;5035626;28;20045;-65
2023/08/24 11:08:49;;;;;;;10.65;7.22;;;25.00;99.90;;;;;;5035347;28;20037;-64
2023/08/24 11:11:25;;;;;;;12.20;7.63;;;25.10;99.90;;;;;;5035237;28;20041;-64
2023/08/24 11:14:15;;;;;;;10.75;7.82;;;25.10;99.90;;;;;;5019069;28;20124;-64
2023/08/24 11:16:47;;;;;;;11.65;8.88;;;25.30;99.90;;;;;;5002901;28;20550;-72
2023/08/24 11:19:22;;;;;;;11.63;7.80;;;25.30;99.90;;;;;;5035326;28;20044;-72
2023/08/24 11:21:48;;;;;;;10.93;7.28;;;25.40;99.90;;;;;;5035260;28;20041;-71
2023/08/24 11:24:17;;;;;;;10.63;8.57;;;25.40;99.90;;;;;;5035128;28;20076;-73
2023/08/24 11:26:48;;;;;;;12.15;7.97;;;25.50;99.90;;;;;;5018591;28;20041;-73
2023/08/24 11:29:20;;;;;;;11.15;8.23;;;25.60;99.90;;;;;;5035008;28;20041;-71
2023/08/24 11:31:54;;;;;;;11.75;8.40;;;25.60;99.90;;;;;;5035936;28;20037;-73
2023/08/24 11:34:21;;;;;;;11.63;7.57;;;25.70;99.90;;;;;;5018548;28;20049;-74
2023/08/24 11:36:47;;;;;;;10.10;7.80;;;25.80;99.90;;;;;;5018533;28;20079;-73
2023/08/24 11:39:19;;;;;;;12.38;8.02;;;25.90;99.90;;;;;;5034751;28;20147;-73
2023/08/24 11:42:03;;;;;;;10.95;8.27;;;25.90;99.90;;;;;;5034827;28;20042;-73
2023/08/24 11:44:29;;;;;;;11.50;8.10;;;25.90;99.90;;;;;;5034724;28;20129;-71
2023/08/24 11:47:07;;;;;;;10.05;7.60;;;25.90;99.90;;;;;;5035101;28;20041;-73
2023/08/24 11:49:33;;;;;;;10.82;7.47;;;25.80;99.90;;;;;;5034880;28;20080;-73
2023/08/24 11:52:02;;;;;;;10.05;7.47;;;25.70;99.90;;;;;;5035175;28;20444;-73
2023/08/24 11:54:32;;;;;;;11.18;7.00;;;25.80;99.90;;;;;;5002499;28;20048;-75
2023/08/24 11:57:01;;;;;;;10.10;6.50;;;25.70;99.90;;;;;;5034528;28;20056;-74
2023/08/24 11:59:28;;;;;;;11.10;6.60;;;25.70;99.90;;;;;;5034730;28;20038;-73
2023/08/24 12:01:54;;;;;;;11.75;7.13;;;25.60;99.90;;;;;;5017728;28;20049;-74
2023/08/24 12:04:20;;;;;;;8.75;5.97;;;25.60;99.90;;;;;;5018010;28;20045;-74
2023/08/24 12:06:49;;;;;;;9.80;6.30;;;25.60;99.90;;;;;;5002629;28;20176;-73
2023/08/24 12:09:16;;;;;;;8.90;6.63;;;25.60;99.90;;;;;;5034211;28;20436;-73
2023/08/24 12:11:41;;;;;;;9.73;6.38;;;25.60;99.90;;;;;;5001539;28;20107;-72
2023/08/24 12:14:09;;;;;;;11.40;6.10;;;25.60;99.90;;;;;;5017698;28;20048;-72
2023/08/24 12:16:35;;;;;;;9.48;6.57;;;25.60;99.90;;;;;;5034444;28;20482;-73
2023/08/24 12:19:13;;;;;;;10.55;6.38;;;25.40;99.90;;;;;;5034253;28;20050;-73
2023/08/24 12:21:43;;;;;;;9.98;6.30;;;25.40;99.90;;;;;;5035634;28;20037;-72
2023/08/24 12:24:14;;;;;;;9.95;6.35;;;25.30;99.90;;;;;;5050745;28;20045;-73
2023/08/24 12:26:54;;;;;;;9.40;6.60;;;25.30;99.90;;;;;;5017748;28;20073;-72
2023/08/24 12:29:23;;;;;;;8.85;6.00;;;25.30;99.90;;;;;;5034189;28;20047;-72
2023/08/24 12:31:49;;;;;;;9.63;5.95;;;25.20;99.90;;;;;;5034012;28;20044;-73
2023/08/24 12:34:15;;;;;;;11.68;6.05;;;25.30;99.90;;;;;;5017738;28;20132;-72
2023/08/24 12:36:43;;;;;;;9.45;6.90;;;25.20;99.90;;;;;;5034232;28;20129;-72
2023/08/24 12:39:21;;;;;;;10.50;6.32;;;25.30;99.90;;;;;;5034054;28;20073;-73
2023/08/24 12:41:49;;;;;;;11.95;6.57;;;25.40;99.90;;;;;;5034077;28;20041;-72
2023/08/24 12:44:15;;;;;;;11.27;6.70;;;25.50;99.90;;;;;;5034986;28;20123;-73
2023/08/24 12:46:41;;;;;;;11.23;7.03;;;25.60;99.90;;;;;;5017608;28;20037;-72
2023/08/24 12:49:07;;;;;;;10.43;7.57;;;25.80;99.90;;;;;;5033850;28;20041;-73